Time;durP1;ratioP1;P1;durP2;ratioP2;P2;SDS_P1;SDS_P2;PMS_P1;PMS_P2;Temp;Humidity;BMP_temperature;BMP_pressure;BME280_temperature;BME280_humidity;BME280_pressure;Samples;Min_cycle;Max_cycle;Signal;HPM_P1;HPM_P2
2023/09/17 00:01:58;;;;;;;6.55;5.93;;;21.00;1.00;;;;;;7387117;19;20013;-68
2023/09/17 00:04:28;;;;;;;6.68;5.72;;;20.90;1.00;;;;;;7392914;19;20014;-68
2023/09/17 00:06:58;;;;;;;6.35;5.72;;;20.90;1.00;;;;;;7395488;19;20018;-67
2023/09/17 00:09:31;;;;;;;6.60;5.90;;;20.90;1.00;;;;;;7394157;19;20472;-68
2023/09/17 00:12:01;;;;;;;7.22;6.07;;;20.80;1.00;;;;;;7393800;19;20467;-67
2023/09/17 00:14:31;;;;;;;9.27;6.20;;;20.90;1.00;;;;;;7395002;19;20413;-68
2023/09/17 00:17:02;;;;;;;8.27;6.70;;;20.80;1.00;;;;;;7394853;19;20011;-68
2023/09/17 00:19:32;;;;;;;8.32;6.30;;;20.70;1.00;;;;;;7394583;19;20541;-69
2023/09/17 00:22:08;;;;;;;7.82;6.45;;;20.60;1.00;;;;;;7394415;19;20017;-68
2023/09/17 00:24:41;;;;;;;7.35;6.00;;;20.60;1.00;;;;;;7394662;19;20006;-68
2023/09/17 00:27:11;;;;;;;7.65;6.07;;;20.50;1.00;;;;;;7392778;19;20015;-68
2023/09/17 00:29:43;;;;;;;7.07;6.38;;;20.50;1.00;;;;;;7394707;19;20018;-69
2023/09/17 00:32:13;;;;;;;8.18;6.50;;;20.50;1.00;;;;;;7394340;19;20018;-68
2023/09/17 00:34:43;;;;;;;6.72;5.95;;;20.50;1.00;;;;;;7394595;19;20007;-68
2023/09/17 00:37:13;;;;;;;5.97;5.00;;;20.50;1.00;;;;;;7393929;19;20201;-68
2023/09/17 00:39:48;;;;;;;6.63;5.80;;;20.50;1.00;;;;;;7393863;19;20010;-68
2023/09/17 00:42:31;;;;;;;7.32;5.53;;;20.60;1.00;;;;;;7391563;19;20035;-68
2023/09/17 00:45:05;;;;;;;7.53;5.88;;;20.60;1.00;;;;;;7395454;19;20466;-67
2023/09/17 00:47:39;;;;;;;7.32;5.88;;;20.50;1.00;;;;;;7393265;19;20541;-67
2023/09/17 00:50:11;;;;;;;;;;;20.50;1.00;;;;;;7393268;19;20020;-70
2023/09/17 00:52:48;;;;;;;6.05;5.43;;;20.50;1.00;;;;;;7393065;19;20350;-69
2023/09/17 00:55:21;;;;;;;6.72;5.75;;;20.50;1.00;;;;;;7392825;19;20010;-68
2023/09/17 00:57:52;;;;;;;8.15;6.45;;;20.40;1.00;;;;;;7390039;19;20029;-68
2023/09/17 01:00:25;;;;;;;7.00;5.95;;;20.40;1.00;;;;;;7394732;19;20027;-68
2023/09/17 01:02:57;;;;;;;7.47;5.90;;;20.40;1.00;;;;;;7393221;19;20007;-68
2023/09/17 01:05:36;;;;;;;6.68;5.70;;;20.40;1.00;;;;;;7394463;19;20015;-67
2023/09/17 01:08:09;;;;;;;8.93;6.13;;;20.40;1.00;;;;;;7393134;19;20039;-67
2023/09/17 01:10:42;;;;;;;6.75;5.70;;;20.40;1.00;;;;;;7393287;19;20074;-68
2023/09/17 01:13:14;;;;;;;5.85;5.25;;;20.40;1.00;;;;;;7393646;19;20070;-69
2023/09/17 01:15:45;;;;;;;6.57;5.45;;;20.30;1.00;;;;;;7391007;19;20491;-67
2023/09/17 01:18:16;;;;;;;6.82;5.68;;;20.40;1.00;;;;;;7393226;19;20035;-67
2023/09/17 01:20:52;;;;;;;6.63;5.93;;;20.30;1.00;;;;;;7393568;19;20336;-67
2023/09/17 01:23:29;;;;;;;6.10;5.43;;;20.10;1.00;;;;;;7394177;19;20026;-68
2023/09/17 01:26:09;;;;;;;5.85;5.10;;;20.10;1.00;;;;;;7393271;19;20014;-68
2023/09/17 01:28:42;;;;;;;7.25;5.80;;;20.10;1.00;;;;;;7392917;19;20391;-67
2023/09/17 01:31:15;;;;;;;5.97;5.38;;;20.00;1.00;;;;;;7392298;19;20011;-67
2023/09/17 01:33:46;;;;;;;7.38;5.72;;;20.00;1.00;;;;;;7393366;19;20469;-67
2023/09/17 01:36:21;;;;;;;7.70;6.05;;;19.90;1.00;;;;;;7393396;19;20024;-67
2023/09/17 01:38:58;;;;;;;8.10;6.07;;;19.90;1.00;;;;;;7393201;19;20014;-68
2023/09/17 01:41:29;;;;;;;6.63;5.93;;;19.80;1.00;;;;;;7393534;19;20516;-68
2023/09/17 01:44:03;;;;;;;6.57;5.65;;;19.80;1.00;;;;;;7394190;19;20010;-68
2023/09/17 01:46:35;;;;;;;8.93;6.63;;;19.80;1.00;;;;;;7390692;19;20096;-68
2023/09/17 01:49:06;;;;;;;8.95;6.28;;;19.80;1.00;;;;;;7392001;19;20078;-68
2023/09/17 01:51:37;;;;;;;7.78;5.53;;;19.80;1.00;;;;;;7392113;19;20082;-68
2023/09/17 01:54:07;;;;;;;6.60;5.90;;;19.80;1.00;;;;;;7393964;19;20019;-68
2023/09/17 01:56:37;;;;;;;7.97;6.45;;;19.90;1.00;;;;;;7391911;19;20010;-68
2023/09/17 01:59:10;;;;;;;8.15;5.80;;;19.90;1.00;;;;;;7393533;19;20014;-68
2023/09/17 02:01:40;;;;;;;6.90;6.00;;;19.90;1.00;;;;;;7391489;19;20107;-68
2023/09/17 02:04:10;;;;;;;6.78;6.07;;;20.00;1.00;;;;;;7391475;19;20070;-68
2023/09/17 02:06:40;;;;;;;6.40;5.80;;;20.00;1.00;;;;;;7391411;19;20006;-67
2023/09/17 02:09:11;;;;;;;7.82;6.30;;;20.00;1.00;;;;;;7392315;19;20028;-68
2023/09/17 02:11:41;;;;;;;6.25;5.45;;;20.10;1.00;;;;;;7391560;19;20470;-68
2023/09/17 02:14:14;;;;;;;7.10;5.65;;;20.00;1.00;;;;;;7392761;19;20010;-68
2023/09/17 02:16:44;;;;;;;6.75;5.68;;;20.00;1.00;;;;;;7391732;19;20015;-67
2023/09/17 02:19:14;;;;;;;6.72;5.70;;;20.00;1.00;;;;;;7391953;19;20014;-68
2023/09/17 02:21:44;;;;;;;6.00;5.40;;;20.10;1.00;;;;;;7391200;19;20022;-67
2023/09/17 02:24:15;;;;;;;8.23;5.95;;;20.00;1.00;;;;;;7392047;19;20034;-67
2023/09/17 02:26:46;;;;;;;6.80;5.85;;;20.10;1.00;;;;;;7390254;19;20374;-68
2023/09/17 02:29:18;;;;;;;8.90;6.07;;;20.10;1.00;;;;;;7391440;19;20031;-67
2023/09/17 02:31:48;;;;;;;7.38;6.13;;;20.10;1.00;;;;;;7391056;19;20478;-67
2023/09/17 02:34:18;;;;;;;7.07;5.72;;;20.10;1.00;;;;;;7391551;19;20019;-68
2023/09/17 02:36:48;;;;;;;6.15;5.22;;;20.10;1.00;;;;;;7390886;19;20035;-68
2023/09/17 02:39:18;;;;;;;6.18;5.57;;;20.10;1.00;;;;;;7387306;19;20470;-68
2023/09/17 02:41:48;;;;;;;7.22;5.45;;;20.10;1.00;;;;;;7389336;19;20022;-68
2023/09/17 02:44:21;;;;;;;6.78;5.60;;;20.00;1.00;;;;;;7390534;19;20006;-68
2023/09/17 02:46:51;;;;;;;7.93;6.22;;;20.00;1.00;;;;;;7386395;19;20011;-67
2023/09/17 02:49:22;;;;;;;7.78;5.40;;;19.90;1.00;;;;;;7388914;19;20010;-67
2023/09/17 02:51:52;;;;;;;6.32;5.28;;;19.80;1.00;;;;;;7387850;19;20014;-68
2023/09/17 02:54:22;;;;;;;7.55;5.60;;;19.80;1.00;;;;;;7390914;19;20021;-67
2023/09/17 02:56:52;;;;;;;7.28;6.00;;;19.70;1.00;;;;;;7389739;19;20014;-67
2023/09/17 02:59:24;;;;;;;9.80;5.70;;;19.70;1.00;;;;;;7390523;19;20025;-67
2023/09/17 03:01:54;;;;;;;7.90;5.85;;;19.50;1.00;;;;;;7389881;19;20018;-69
2023/09/17 03:04:26;;;;;;;6.55;5.55;;;19.50;1.00;;;;;;7389790;19;20530;-67
2023/09/17 03:06:56;;;;;;;8.35;5.80;;;19.50;1.00;;;;;;7389240;19;20574;-67
2023/09/17 03:09:26;;;;;;;7.78;6.15;;;19.50;1.00;;;;;;7390209;19;20031;-66
2023/09/17 03:11:56;;;;;;;7.18;5.55;;;19.50;1.00;;;;;;7389577;19;20011;-67
2023/09/17 03:14:29;;;;;;;6.78;5.45;;;19.40;1.00;;;;;;7390034;19;20098;-67
2023/09/17 03:16:59;;;;;;;7.20;5.93;;;19.30;1.00;;;;;;7388702;19;20014;-67
2023/09/17 03:19:29;;;;;;;6.22;5.57;;;19.30;1.00;;;;;;7389888;19;20018;-67
2023/09/17 03:21:59;;;;;;;9.88;6.15;;;19.30;1.00;;;;;;7389214;19;20018;-67
2023/09/17 03:24:29;;;;;;;8.25;6.30;;;19.30;1.00;;;;;;7389822;19;20022;-67
2023/09/17 03:26:59;;;;;;;10.48;6.85;;;19.30;1.00;;;;;;7388937;19;20035;-67
2023/09/17 03:29:31;;;;;;;6.90;6.20;;;19.30;1.00;;;;;;7389665;19;20018;-67
2023/09/17 03:32:01;;;;;;;7.80;6.65;;;19.30;1.00;;;;;;7389137;19;20014;-67
2023/09/17 03:34:32;;;;;;;8.80;6.53;;;19.20;1.00;;;;;;7390147;19;20018;-67
2023/09/17 03:37:02;;;;;;;8.70;6.13;;;19.20;1.00;;;;;;7389007;19;20024;-67
2023/09/17 03:39:33;;;;;;;7.25;6.28;;;19.20;1.00;;;;;;7394028;19;20010;-67
2023/09/17 03:42:03;;;;;;;9.63;6.70;;;19.20;1.00;;;;;;7395761;19;20039;-67
2023/09/17 03:44:35;;;;;;;11.95;6.60;;;19.20;1.00;;;;;;7396370;19;20082;-67
2023/09/17 03:47:06;;;;;;;7.68;6.20;;;19.10;1.00;;;;;;7395774;19;20023;-67
2023/09/17 03:49:36;;;;;;;7.85;6.32;;;19.10;1.00;;;;;;7396421;19;20018;-67
2023/09/17 03:52:07;;;;;;;7.78;6.35;;;19.10;1.00;;;;;;7394681;19;20007;-67
2023/09/17 03:54:37;;;;;;;8.65;6.38;;;19.10;1.00;;;;;;7395926;19;20331;-67
2023/09/17 03:57:08;;;;;;;6.80;6.10;;;19.10;1.00;;;;;;7394908;19;20480;-66
2023/09/17 03:59:38;;;;;;;7.55;6.43;;;19.00;1.00;;;;;;7395004;19;20074;-66
2023/09/17 04:02:09;;;;;;;7.28;6.00;;;18.90;1.00;;;;;;7394793;19;20085;-66
2023/09/17 04:04:39;;;;;;;8.95;7.32;;;18.90;1.00;;;;;;7395150;19;20014;-66
2023/09/17 04:07:09;;;;;;;8.50;6.72;;;18.80;1.00;;;;;;7392795;19;20018;-66
2023/09/17 04:09:38;;;;;;;8.98;6.68;;;18.80;1.00;;;;;;7395145;19;20023;-66
2023/09/17 04:12:11;;;;;;;9.20;6.50;;;18.80;1.00;;;;;;7393527;19;20081;-66
2023/09/17 04:14:44;;;;;;;7.47;6.68;;;18.80;1.00;;;;;;7394698;19;20474;-67
2023/09/17 04:17:14;;;;;;;8.50;6.85;;;18.80;1.00;;;;;;7393895;19;20022;-66
2023/09/17 04:19:45;;;;;;;7.53;6.32;;;18.70;1.00;;;;;;7394726;19;20481;-68
2023/09/17 04:22:15;;;;;;;7.40;6.45;;;18.70;3.20;;;;;;7393975;19;20035;-68
2023/09/17 04:24:45;;;;;;;10.07;6.93;;;18.70;7.30;;;;;;7394471;19;20028;-68
2023/09/17 04:27:15;;;;;;;8.15;6.15;;;18.70;5.60;;;;;;7393676;19;20109;-68
2023/09/17 04:29:49;;;;;;;8.85;6.50;;;18.80;7.40;;;;;;7394241;19;20018;-68
2023/09/17 04:32:19;;;;;;;10.00;6.82;;;18.70;7.50;;;;;;7393668;19;20015;-68
2023/09/17 04:34:49;;;;;;;7.50;6.68;;;18.70;7.20;;;;;;7394377;19;20356;-68
2023/09/17 04:37:20;;;;;;;8.30;6.65;;;18.70;8.00;;;;;;7393648;19;20514;-68
2023/09/17 04:39:50;;;;;;;8.40;6.88;;;18.70;9.60;;;;;;7395001;19;20018;-67
2023/09/17 04:42:20;;;;;;;8.90;6.35;;;18.60;11.10;;;;;;7393891;19;20015;-67
2023/09/17 04:44:53;;;;;;;8.02;6.90;;;18.60;12.50;;;;;;7395549;19;20052;-67
2023/09/17 04:47:24;;;;;;;8.80;6.65;;;18.50;16.90;;;;;;7393730;19;20470;-68
2023/09/17 04:49:54;;;;;;;8.57;7.25;;;18.50;20.50;;;;;;7394813;19;20107;-67
2023/09/17 04:52:24;;;;;;;8.30;7.03;;;18.60;19.00;;;;;;7393939;19;20019;-67
2023/09/17 04:54:54;;;;;;;8.93;7.72;;;18.60;19.90;;;;;;7394756;19;20082;-67
2023/09/17 04:57:24;;;;;;;9.15;7.47;;;18.60;17.80;;;;;;7394292;19;20043;-67
2023/09/17 04:59:57;;;;;;;9.43;7.72;;;18.60;18.00;;;;;;7394470;19;20014;-68
2023/09/17 05:02:28;;;;;;;10.15;7.20;;;18.60;17.90;;;;;;7393398;19;20458;-68
2023/09/17 05:04:58;;;;;;;12.48;7.47;;;18.60;19.60;;;;;;7394377;19;20407;-67
2023/09/17 05:07:28;;;;;;;8.18;6.93;;;18.60;20.10;;;;;;7393825;19;20015;-67
2023/09/17 05:09:58;;;;;;;8.27;6.90;;;18.60;19.90;;;;;;7394298;19;20014;-67
2023/09/17 05:12:28;;;;;;;8.18;7.05;;;18.60;21.10;;;;;;7392948;19;20500;-67
2023/09/17 05:15:00;;;;;;;9.48;7.00;;;18.60;20.50;;;;;;7392489;19;20082;-67
2023/09/17 05:17:30;;;;;;;7.55;6.53;;;18.70;20.60;;;;;;7393141;19;20011;-67
2023/09/17 05:20:00;;;;;;;8.43;6.70;;;18.70;18.80;;;;;;7393647;19;20015;-67
2023/09/17 05:22:31;;;;;;;7.38;6.68;;;18.90;15.40;;;;;;7393178;19;20486;-67
2023/09/17 05:25:01;;;;;;;7.88;6.70;;;18.90;13.80;;;;;;7393554;19;20022;-67
2023/09/17 05:27:31;;;;;;;7.65;6.60;;;18.80;16.40;;;;;;7392728;19;20014;-67
2023/09/17 05:30:04;;;;;;;7.50;6.68;;;18.70;18.50;;;;;;7393907;19;20014;-67
2023/09/17 05:32:35;;;;;;;7.77;6.50;;;18.80;19.50;;;;;;7391057;19;20039;-67
2023/09/17 05:35:07;;;;;;;8.27;6.30;;;18.80;16.00;;;;;;7393387;19;20040;-67
2023/09/17 05:37:38;;;;;;;7.72;6.40;;;18.90;16.60;;;;;;7391131;19;20031;-67
2023/09/17 05:40:09;;;;;;;7.15;6.45;;;19.00;17.70;;;;;;7392566;19;20023;-67
2023/09/17 05:42:39;;;;;;;7.88;6.68;;;19.00;16.20;;;;;;7392755;19;20039;-67
2023/09/17 05:45:12;;;;;;;7.05;6.35;;;19.10;13.50;;;;;;7391998;19;20093;-67
2023/09/17 05:47:42;;;;;;;7.03;6.32;;;19.10;10.70;;;;;;7391031;19;20014;-68
2023/09/17 05:50:13;;;;;;;11.10;6.38;;;19.20;9.30;;;;;;7393196;19;20015;-68
2023/09/17 05:52:43;;;;;;;7.57;6.35;;;19.30;8.00;;;;;;7393227;19;20389;-67
2023/09/17 05:55:14;;;;;;;7.75;6.38;;;19.40;3.20;;;;;;7393157;19;20021;-68
2023/09/17 05:57:44;;;;;;;8.93;7.18;;;19.50;1.80;;;;;;7392882;19;20035;-68
2023/09/17 06:00:17;;;;;;;7.28;6.38;;;19.50;1.00;;;;;;7391575;19;20031;-68
2023/09/17 06:02:47;;;;;;;7.88;6.10;;;19.60;1.00;;;;;;7391257;19;20014;-68
2023/09/17 06:05:17;;;;;;;6.63;5.93;;;19.60;1.00;;;;;;7393191;19;20018;-67
2023/09/17 06:07:47;;;;;;;6.47;5.88;;;19.70;1.00;;;;;;7391769;19;20078;-67
2023/09/17 06:10:17;;;;;;;7.15;5.80;;;19.70;1.00;;;;;;7392954;19;20416;-68
2023/09/17 06:12:47;;;;;;;7.45;6.65;;;19.70;1.00;;;;;;7391864;19;20424;-68
2023/09/17 06:15:19;;;;;;;7.05;6.28;;;19.70;1.00;;;;;;7392037;19;20506;-68
2023/09/17 06:17:49;;;;;;;7.85;6.22;;;19.90;1.00;;;;;;7391303;19;20039;-68
2023/09/17 06:20:19;;;;;;;7.20;6.50;;;20.00;1.00;;;;;;7392002;19;20021;-68
2023/09/17 06:22:49;;;;;;;7.28;6.22;;;20.00;1.00;;;;;;7391475;19;20073;-67
2023/09/17 06:25:19;;;;;;;7.93;6.57;;;20.00;1.00;;;;;;7392092;19;20022;-67
2023/09/17 06:27:49;;;;;;;7.68;6.30;;;20.20;1.00;;;;;;7391241;19;20021;-67
2023/09/17 06:30:22;;;;;;;8.48;7.05;;;20.30;1.00;;;;;;7392293;19;20027;-67
2023/09/17 06:32:52;;;;;;;7.22;6.18;;;20.30;1.00;;;;;;7390387;19;20017;-68
2023/09/17 06:35:22;;;;;;;7.25;6.28;;;20.50;1.00;;;;;;7392073;19;20014;-68
2023/09/17 06:37:52;;;;;;;6.57;5.97;;;20.60;1.00;;;;;;7390984;19;20723;-68
2023/09/17 06:40:22;;;;;;;9.30;5.82;;;20.60;1.00;;;;;;7391781;19;20565;-67
2023/09/17 06:42:52;;;;;;;6.30;5.70;;;20.80;1.00;;;;;;7390646;19;20019;-68
2023/09/17 06:45:25;;;;;;;7.35;6.20;;;20.90;1.00;;;;;;7390658;19;20014;-68
2023/09/17 06:47:55;;;;;;;7.30;5.50;;;20.90;1.00;;;;;;7390234;19;20043;-68
2023/09/17 06:50:25;;;;;;;6.32;5.15;;;21.10;1.00;;;;;;7390825;19;20021;-68
2023/09/17 06:52:55;;;;;;;8.50;5.95;;;21.30;1.00;;;;;;7390253;19;20171;-68
2023/09/17 06:55:25;;;;;;;6.00;4.90;;;21.30;1.00;;;;;;7391042;19;20014;-68
2023/09/17 06:57:55;;;;;;;6.57;5.18;;;21.40;1.00;;;;;;7388100;19;20532;-67
2023/09/17 07:00:27;;;;;;;8.18;5.43;;;21.50;1.00;;;;;;7389733;19;20038;-67
2023/09/17 07:02:57;;;;;;;7.10;5.30;;;21.70;1.00;;;;;;7390492;19;20014;-67
2023/09/17 07:05:27;;;;;;;7.85;5.28;;;21.70;1.00;;;;;;7390939;19;20018;-67
2023/09/17 07:07:57;;;;;;;5.60;5.03;;;21.60;1.00;;;;;;7389876;19;20021;-67
2023/09/17 07:10:27;;;;;;;5.70;5.10;;;21.70;1.00;;;;;;7390516;19;20014;-67
2023/09/17 07:12:57;;;;;;;6.15;5.00;;;21.80;1.00;;;;;;7385665;19;20011;-67
2023/09/17 07:15:30;;;;;;;6.68;5.15;;;21.80;1.00;;;;;;7390594;19;20091;-68
2023/09/17 07:18:00;;;;;;;6.00;5.40;;;21.80;1.00;;;;;;7389968;19;20018;-68
2023/09/17 07:20:30;;;;;;;6.35;4.88;;;21.80;1.00;;;;;;7389943;19;20018;-68
2023/09/17 07:23:00;;;;;;;6.53;4.90;;;21.80;1.00;;;;;;7388042;19;20011;-68
2023/09/17 07:25:31;;;;;;;5.97;5.35;;;21.80;1.00;;;;;;7389697;19;20019;-68
2023/09/17 07:28:07;;;;;;;5.90;4.93;;;22.00;1.00;;;;;;7389200;19;20018;-68
2023/09/17 07:30:39;;;;;;;6.05;5.45;;;22.10;1.00;;;;;;7389891;19;20078;-68
2023/09/17 07:33:10;;;;;;;6.97;4.97;;;22.20;1.00;;;;;;7388562;19;20014;-68
2023/09/17 07:35:41;;;;;;;7.57;5.40;;;22.10;1.00;;;;;;7389897;19;20391;-68
2023/09/17 07:38:11;;;;;;;6.60;5.07;;;22.10;1.00;;;;;;7388233;19;20035;-68
2023/09/17 07:40:41;;;;;;;5.93;4.72;;;22.30;1.00;;;;;;7389474;19;20042;-68
2023/09/17 07:43:11;;;;;;;6.78;5.25;;;22.30;1.00;;;;;;7389258;19;20360;-68
2023/09/17 07:45:43;;;;;;;6.45;5.55;;;22.30;1.00;;;;;;7389333;19;20020;-68
2023/09/17 07:48:13;;;;;;;6.55;5.25;;;22.50;1.00;;;;;;7388647;19;20010;-68
2023/09/17 07:50:43;;;;;;;7.63;5.13;;;22.70;1.00;;;;;;7389754;19;20015;-67
2023/09/17 07:53:13;;;;;;;5.45;4.90;;;22.80;1.00;;;;;;7389099;19;20011;-68
2023/09/17 07:55:43;;;;;;;7.43;5.10;;;22.60;1.00;;;;;;7389735;19;20066;-67
2023/09/17 07:58:13;;;;;;;7.47;5.18;;;22.70;1.00;;;;;;7388580;19;20498;-68
2023/09/17 08:00:48;;;;;;;5.88;5.28;;;22.80;1.00;;;;;;7389441;19;20007;-67
2023/09/17 08:03:19;;;;;;;6.55;4.80;;;22.90;1.00;;;;;;7389619;19;20007;-68
2023/09/17 08:05:50;;;;;;;6.38;4.45;;;23.10;1.00;;;;;;7389703;19;20003;-68
2023/09/17 08:08:20;;;;;;;5.40;4.72;;;23.20;1.00;;;;;;7386856;19;20018;-68
2023/09/17 08:10:51;;;;;;;5.90;4.45;;;23.00;1.00;;;;;;7389153;19;20018;-68
2023/09/17 08:13:21;;;;;;;6.82;4.90;;;23.20;1.00;;;;;;7389127;19;20015;-68
2023/09/17 08:15:55;;;;;;;5.22;4.43;;;23.40;1.00;;;;;;7389179;19;20107;-68
2023/09/17 08:18:25;;;;;;;7.43;4.57;;;23.60;1.00;;;;;;7389188;19;20353;-68
2023/09/17 08:20:55;;;;;;;6.00;4.30;;;23.60;1.00;;;;;;7387683;19;20086;-68
2023/09/17 08:23:25;;;;;;;6.60;3.92;;;23.70;1.00;;;;;;7388666;19;20029;-68
2023/09/17 08:26:14;;;;;;;8.02;4.90;;;23.70;1.00;;;;;;7394053;19;20022;-68
2023/09/17 08:29:05;;;;;;;6.00;4.15;;;23.90;1.00;;;;;;7394882;19;20022;-68
2023/09/17 08:31:58;;;;;;;5.10;3.90;;;24.00;1.00;;;;;;7392164;19;20011;-68
2023/09/17 08:34:48;;;;;;;4.10;3.35;;;24.10;1.00;;;;;;7394619;19;20014;-67
2023/09/17 08:37:18;;;;;;;7.68;4.57;;;24.40;1.00;;;;;;7394186;19;20019;-68
2023/09/17 08:39:48;;;;;;;4.63;4.00;;;24.40;1.00;;;;;;7394849;19;20081;-68
2023/09/17 08:42:18;;;;;;;4.30;3.90;;;24.50;1.00;;;;;;7393746;19;20366;-68
2023/09/17 08:44:49;;;;;;;7.32;3.95;;;24.70;1.00;;;;;;7395054;19;20359;-68
2023/09/17 08:47:21;;;;;;;5.22;4.72;;;24.60;1.00;;;;;;7393408;19;20023;-68
2023/09/17 08:49:51;;;;;;;6.47;3.63;;;24.60;1.00;;;;;;7394267;19;20014;-68
2023/09/17 08:52:23;;;;;;;5.65;4.15;;;25.00;1.00;;;;;;7389182;19;20055;-68
2023/09/17 08:54:54;;;;;;;6.03;4.65;;;24.80;1.00;;;;;;7392619;19;20541;-68
2023/09/17 08:57:26;;;;;;;4.85;4.15;;;24.80;1.00;;;;;;7392175;19;20416;-68
2023/09/17 09:00:08;;;;;;;5.32;4.03;;;24.80;1.00;;;;;;7392198;19;20424;-68
2023/09/17 09:02:46;;;;;;;6.35;4.18;;;24.90;1.00;;;;;;7392338;19;20018;-69
2023/09/17 09:05:19;;;;;;;4.57;3.75;;;25.00;1.00;;;;;;7393322;19;20097;-68
2023/09/17 09:07:50;;;;;;;6.82;3.78;;;25.00;1.00;;;;;;7392874;19;20017;-67
2023/09/17 09:10:21;;;;;;;6.25;3.78;;;25.00;1.00;;;;;;7393431;19;20506;-67
2023/09/17 09:12:52;;;;;;;5.35;3.80;;;25.30;1.00;;;;;;7392633;19;20073;-67
2023/09/17 09:15:22;;;;;;;9.75;4.05;;;25.50;1.00;;;;;;7392861;19;20025;-68
2023/09/17 09:17:55;;;;;;;5.80;4.00;;;25.50;1.00;;;;;;7390304;19;20019;-68
2023/09/17 09:20:26;;;;;;;6.03;3.90;;;25.60;1.00;;;;;;7391864;19;20014;-68
2023/09/17 09:22:56;;;;;;;4.05;3.60;;;25.50;1.00;;;;;;7392001;19;20007;-68
2023/09/17 09:25:28;;;;;;;4.43;3.65;;;25.60;1.00;;;;;;7392877;19;20039;-68
2023/09/17 09:28:00;;;;;;;4.57;3.45;;;25.80;1.00;;;;;;7391798;19;20511;-68
2023/09/17 09:30:31;;;;;;;5.03;3.50;;;26.00;1.00;;;;;;7391511;19;20376;-68
2023/09/17 09:33:04;;;;;;;6.00;3.40;;;25.90;1.00;;;;;;7391940;19;20362;-68
2023/09/17 09:35:34;;;;;;;3.80;3.30;;;25.90;1.00;;;;;;7390488;19;20015;-67
2023/09/17 09:38:04;;;;;;;5.28;3.55;;;26.10;1.00;;;;;;7390709;19;20028;-68
2023/09/17 09:40:36;;;;;;;6.28;3.75;;;26.10;1.00;;;;;;7392446;19;20014;-68
2023/09/17 09:43:06;;;;;;;6.20;3.78;;;26.20;1.00;;;;;;7390664;19;20011;-68
2023/09/17 09:45:38;;;;;;;5.43;3.03;;;26.00;1.00;;;;;;7392503;19;20027;-68
2023/09/17 09:48:16;;;;;;;5.88;3.17;;;26.40;1.00;;;;;;7391659;19;20014;-68
2023/09/17 09:50:47;;;;;;;4.60;3.60;;;26.50;1.00;;;;;;7391937;19;20043;-68
2023/09/17 09:53:17;;;;;;;3.88;2.97;;;26.50;1.00;;;;;;7392434;19;20014;-68
2023/09/17 09:55:48;;;;;;;3.83;2.97;;;26.70;1.00;;;;;;7392133;19;20030;-68
2023/09/17 09:58:18;;;;;;;5.03;3.03;;;26.90;1.00;;;;;;7392126;19;20023;-67
2023/09/17 10:00:48;;;;;;;6.82;3.35;;;27.00;1.00;;;;;;7391217;19;20101;-68
2023/09/17 10:03:23;;;;;;;6.15;3.08;;;26.90;1.00;;;;;;7392327;19;20018;-68
2023/09/17 10:05:53;;;;;;;8.00;2.90;;;26.90;1.00;;;;;;7391199;19;20006;-67
2023/09/17 10:08:23;;;;;;;6.88;3.03;;;27.10;1.00;;;;;;7391174;19;20020;-67
2023/09/17 10:10:53;;;;;;;7.45;3.10;;;27.20;1.00;;;;;;7391441;19;20078;-67
2023/09/17 10:13:24;;;;;;;3.78;2.70;;;27.10;1.00;;;;;;7393124;19;20528;-68
2023/09/17 10:15:54;;;;;;;6.28;3.45;;;27.10;1.00;;;;;;7392104;19;20023;-68
2023/09/17 10:18:29;;;;;;;7.40;3.25;;;27.10;1.00;;;;;;7391828;19;20023;-68
2023/09/17 10:20:59;;;;;;;4.82;2.97;;;27.20;1.00;;;;;;7391652;19;20090;-68
2023/09/17 10:23:33;;;;;;;6.75;2.85;;;27.50;1.00;;;;;;7392652;19;20522;-68
2023/09/17 10:26:05;;;;;;;7.05;3.20;;;27.70;1.00;;;;;;7391333;19;20363;-68
2023/09/17 10:28:36;;;;;;;5.05;2.85;;;27.50;1.00;;;;;;7392021;19;20011;-69
2023/09/17 10:31:10;;;;;;;5.95;2.60;;;27.60;1.00;;;;;;7391463;19;20006;-68
2023/09/17 10:33:46;;;;;;;5.25;2.88;;;27.90;1.00;;;;;;7391408;19;20031;-69
2023/09/17 10:36:17;;;;;;;6.68;2.88;;;28.20;1.00;;;;;;7389845;19;20018;-68
2023/09/17 10:38:49;;;;;;;10.05;2.95;;;28.10;1.00;;;;;;7380925;19;20026;-67
2023/09/17 10:41:19;;;;;;;5.93;2.70;;;27.90;1.00;;;;;;7372043;19;20363;-68
2023/09/17 10:43:51;;;;;;;6.03;2.83;;;28.00;1.00;;;;;;7370720;19;20011;-68
2023/09/17 10:46:24;;;;;;;7.97;3.15;;;28.10;1.00;;;;;;7370901;19;20017;-68
2023/09/17 10:48:57;;;;;;;4.77;2.43;;;28.10;1.00;;;;;;7368771;19;20010;-70
2023/09/17 10:51:29;;;;;;;4.45;3.13;;;28.00;1.00;;;;;;7371594;19;20121;-68
2023/09/17 10:53:59;;;;;;;5.22;3.65;;;28.00;1.00;;;;;;7371880;19;20017;-68
2023/09/17 10:56:29;;;;;;;6.50;2.60;;;28.30;1.00;;;;;;7371179;19;20010;-68
2023/09/17 10:58:59;;;;;;;6.60;2.70;;;28.40;1.00;;;;;;7367133;19;20010;-67
2023/09/17 11:01:34;;;;;;;7.72;2.70;;;28.10;1.00;;;;;;7369020;19;20474;-69
2023/09/17 11:04:12;;;;;;;6.85;2.40;;;27.90;1.00;;;;;;7370138;19;20011;-68
2023/09/17 11:06:44;;;;;;;8.77;2.72;;;28.40;1.00;;;;;;7370052;19;20018;-68
2023/09/17 11:09:16;;;;;;;5.00;2.50;;;28.80;1.00;;;;;;7365599;19;20488;-68
2023/09/17 11:11:47;;;;;;;6.00;3.30;;;28.80;1.00;;;;;;7367157;19;20017;-68
2023/09/17 11:14:18;;;;;;;6.55;3.35;;;29.00;1.00;;;;;;7370871;19;20011;-69
2023/09/17 11:16:50;;;;;;;5.45;3.05;;;28.90;1.00;;;;;;7368874;19;20114;-69
2023/09/17 11:19:23;;;;;;;5.65;2.75;;;28.90;1.00;;;;;;7364997;19;20074;-68
2023/09/17 11:22:10;;;;;;;8.55;2.90;;;28.80;1.00;;;;;;7369741;19;20652;-68
2023/09/17 11:24:41;;;;;;;5.93;2.40;;;28.80;1.00;;;;;;7371465;19;20011;-69
2023/09/17 11:27:12;;;;;;;7.18;2.42;;;28.90;1.00;;;;;;7369895;19;20787;-67
2023/09/17 11:29:44;;;;;;;5.50;2.97;;;28.80;1.00;;;;;;7364068;19;20593;-69
2023/09/17 11:32:14;;;;;;;8.90;2.70;;;28.90;1.00;;;;;;7369990;19;20031;-68
2023/09/17 11:34:47;;;;;;;4.75;2.47;;;29.00;1.00;;;;;;7369704;19;20020;-68
2023/09/17 11:37:18;;;;;;;6.68;2.50;;;29.00;1.00;;;;;;7371214;19;20103;-68
2023/09/17 11:39:53;;;;;;;5.72;3.17;;;29.10;1.00;;;;;;7362260;19;20467;-68
2023/09/17 11:42:26;;;;;;;3.70;2.75;;;28.80;1.00;;;;;;7369431;19;20338;-67
2023/09/17 11:44:58;;;;;;;4.47;2.27;;;28.70;1.00;;;;;;7369565;19;20485;-68
2023/09/17 11:47:28;;;;;;;6.47;2.50;;;28.30;1.00;;;;;;7368946;19;20139;-69
2023/09/17 11:50:02;;;;;;;10.70;2.95;;;28.50;1.00;;;;;;7363667;19;20010;-68
2023/09/17 11:52:35;;;;;;;7.45;2.88;;;28.80;1.00;;;;;;7368437;19;20010;-68
2023/09/17 11:55:07;;;;;;;7.20;2.33;;;28.70;1.00;;;;;;7368109;19;20111;-67
2023/09/17 11:57:37;;;;;;;8.35;3.00;;;29.00;1.00;;;;;;7368998;19;20858;-69
2023/09/17 12:00:11;;;;;;;6.28;2.20;;;28.60;1.00;;;;;;7366696;19;20007;-68
2023/09/17 12:02:41;;;;;;;;;;;28.60;1.00;;;;;;7376280;19;20031;-68
2023/09/17 12:05:14;;;;;;;11.55;2.88;;;28.70;1.00;;;;;;7376286;19;19925;-68
2023/09/17 12:07:46;;;;;;;7.25;2.33;;;28.90;1.00;;;;;;7374324;19;20027;-68
2023/09/17 12:10:26;;;;;;;4.80;2.20;;;28.80;1.00;;;;;;7369071;19;20374;-67
2023/09/17 12:12:59;;;;;;;6.15;2.53;;;28.90;1.00;;;;;;7374688;19;20018;-68
2023/09/17 12:15:29;;;;;;;3.50;1.75;;;29.10;1.00;;;;;;7375853;19;20364;-68
2023/09/17 12:18:00;;;;;;;6.65;2.45;;;29.40;1.00;;;;;;7373364;19;20010;-69
2023/09/17 12:20:49;;;;;;;5.25;2.38;;;29.30;1.00;;;;;;7370007;19;20014;-67
2023/09/17 12:23:26;;;;;;;3.65;1.90;;;29.40;1.00;;;;;;7375858;19;20018;-69
2023/09/17 12:25:56;;;;;;;7.80;2.95;;;29.40;1.00;;;;;;7374730;19;20126;-68
2023/09/17 12:28:30;;;;;;;4.38;1.95;;;29.40;1.00;;;;;;7374084;19;20022;-67
2023/09/17 12:31:01;;;;;;;8.23;2.22;;;29.50;1.00;;;;;;7370272;19;20089;-69
2023/09/17 12:33:32;;;;;;;6.47;2.20;;;29.60;1.00;;;;;;7375765;19;20039;-68
2023/09/17 12:36:05;;;;;;;3.63;1.73;;;29.40;1.00;;;;;;7372763;19;20014;-69
2023/09/17 12:38:35;;;;;;;6.00;1.95;;;29.50;1.00;;;;;;7373655;19;20015;-69
2023/09/17 12:41:05;;;;;;;5.63;1.98;;;29.70;1.00;;;;;;7371245;19;20007;-69
2023/09/17 12:43:35;;;;;;;8.27;2.20;;;29.70;1.00;;;;;;7375032;19;20505;-68
2023/09/17 12:46:06;;;;;;;6.00;2.00;;;29.70;1.00;;;;;;7373951;19;20011;-68
2023/09/17 12:48:37;;;;;;;8.18;2.92;;;29.70;1.00;;;;;;7369014;19;20366;-69
2023/09/17 12:51:10;;;;;;;4.82;2.10;;;29.70;1.00;;;;;;7371412;19;20006;-69
2023/09/17 12:53:42;;;;;;;4.55;2.10;;;29.70;1.00;;;;;;7375171;19;20314;-69
2023/09/17 12:56:12;;;;;;;4.95;1.77;;;29.80;1.00;;;;;;7373384;19;20534;-69
2023/09/17 12:58:43;;;;;;;4.57;1.92;;;29.90;1.00;;;;;;7370799;19;20439;-68
2023/09/17 13:01:14;;;;;;;3.85;1.98;;;29.80;1.00;;;;;;7373040;19;20020;-69
2023/09/17 13:03:55;;;;;;;5.22;1.90;;;29.60;1.00;;;;;;7374272;19;20575;-68
2023/09/17 13:06:29;;;;;;;4.13;1.67;;;29.70;1.00;;;;;;7373103;19;20018;-69
2023/09/17 13:08:59;;;;;;;;;;;29.60;1.00;;;;;;7370133;19;20010;-70
2023/09/17 13:11:29;;;;;;;5.80;2.20;;;29.50;1.00;;;;;;7372026;19;19921;-68
2023/09/17 13:14:00;;;;;;;4.28;1.92;;;29.50;1.00;;;;;;7374021;19;20024;-68
2023/09/17 13:16:30;;;;;;;5.25;2.47;;;29.70;1.00;;;;;;7373312;19;20014;-69
2023/09/17 13:19:00;;;;;;;7.18;1.98;;;29.90;1.00;;;;;;7368156;19;20304;-70
2023/09/17 13:21:34;;;;;;;4.65;1.95;;;29.70;1.00;;;;;;7373146;19;20011;-68